Terminal Aerodrome Forecast
Issued by NWS Denver/Boulder, CO

Home | Current Version | Previous Version | Text Only | Print | Product List | Glossary On
Versions: 1 2 3 4 5 6 7 8 9 10 11 12 13 14 15 16 17 18 19 20 21 22 23 24 25 26 27 28 29 30 31 32 33 34 35 36 37 38 39 40 41 42 43 44 45 46 47 48 49 50
000
FTUS45 KBOU 081140
TAFDEN
TAF
KDEN 081140Z 0812/0918 09007KT P6SM SCT028 BKN040
     FM081800 10011KT P6SM SCT050 SCT110
     FM082200 12012KT P6SM VCTS SCT060CB BKN110 PROB30 0823/0903
      VRB20G30KT TSRA BKN060CB
     FM090300 17010KT P6SM SCT070 BKN120
     FM090600 21011KT P6SM FEW120 SCT200=

USA.gov is the U.S. government's official web portal to all federal, state and local government web resources and services.